Time;durP1;ratioP1;P1;durP2;ratioP2;P2;SDS_P1;SDS_P2;PMS_P1;PMS_P2;Temp;Humidity;BMP_temperature;BMP_pressure;BME280_temperature;BME280_humidity;BME280_pressure;Samples;Min_cycle;Max_cycle;Signal;HPM_P1;HPM_P2
2022/02/05 00:02:43;;;;;;;2.80;1.23;;;3.90;89.10;;;;;;5071920;28;20036;-72
2022/02/05 00:04:58;;;;;;;4.40;2.00;;;3.80;90.00;;;;;;5069899;28;20045;-72
2022/02/05 00:07:27;;;;;;;1.55;1.27;;;3.70;90.20;;;;;;5072042;28;20066;-72
2022/02/05 00:40:36;;;;;;;8.77;2.75;;;3.60;89.80;;;;;;5075598;28;20039;-71
2022/02/05 00:43:00;;;;;;;7.28;2.58;;;3.60;90.00;;;;;;5074111;28;20032;-72
2022/02/05 00:45:28;;;;;;;5.70;2.60;;;3.70;89.20;;;;;;5074970;28;20029;-72
2022/02/05 00:47:56;;;;;;;6.93;2.15;;;3.60;89.50;;;;;;5074457;28;20036;-72
2022/02/05 00:50:25;;;;;;;6.78;2.70;;;3.60;88.90;;;;;;5075365;28;20366;-72
2022/02/05 00:53:13;;;;;;;5.50;2.65;;;3.60;88.90;;;;;;5074643;28;20044;-72
2022/02/05 00:55:44;;;;;;;4.38;1.90;;;3.50;89.40;;;;;;5074567;28;20497;-73
2022/02/05 00:58:10;;;;;;;8.68;1.52;;;3.40;90.20;;;;;;5074869;28;20052;-72
2022/02/05 01:00:37;;;;;;;4.65;1.40;;;3.30;90.40;;;;;;5074925;28;20044;-72
2022/02/05 01:03:04;;;;;;;2.95;1.27;;;3.30;90.40;;;;;;5074920;28;20033;-72
2022/02/05 01:05:33;;;;;;;2.22;1.45;;;3.30;90.50;;;;;;5074828;28;20381;-72
2022/02/05 01:08:00;;;;;;;7.35;1.65;;;3.40;90.30;;;;;;5074507;28;20025;-72
2022/02/05 01:10:27;;;;;;;2.83;1.58;;;3.40;90.50;;;;;;5074612;28;20037;-72
2022/02/05 01:12:59;;;;;;;2.28;1.58;;;3.20;90.90;;;;;;5073909;28;20024;-72
2022/02/05 01:15:31;;;;;;;5.68;1.25;;;3.10;91.20;;;;;;5074695;28;20051;-72
2022/02/05 01:18:02;;;;;;;3.42;1.80;;;3.10;91.40;;;;;;5074075;28;20108;-72
2022/02/05 01:23:36;;;;;;;10.73;2.13;;;3.00;91.70;;;;;;5051289;28;20051;-72
2022/02/05 01:26:26;;;;;;;3.42;1.60;;;3.10;91.50;;;;;;5073849;28;20040;-72
2022/02/05 01:29:02;;;;;;;3.20;1.98;;;3.20;91.40;;;;;;5073754;28;20036;-72
2022/02/05 01:31:35;;;;;;;4.82;1.80;;;3.10;91.60;;;;;;5074262;28;20032;-72
2022/02/05 01:34:14;;;;;;;2.65;1.27;;;3.00;91.90;;;;;;5073973;28;20040;-72
2022/02/05 01:58:16;;;;;;;8.27;2.95;;;2.80;93.10;;;;;;5041581;28;20037;-72
2022/02/05 02:06:34;;;;;;;9.18;2.88;;;2.80;94.00;;;;;;5073917;28;20036;-72
2022/02/05 02:19:33;;;;;;;5.45;2.67;;;3.30;93.20;;;;;;5073464;28;20035;-72
2022/02/05 02:22:19;;;;;;;3.88;2.50;;;3.20;93.30;;;;;;5073292;28;20381;-72
2022/02/05 02:30:04;;;;;;;7.55;2.30;;;3.30;92.90;;;;;;5072650;28;20366;-72
2022/02/05 02:32:32;;;;;;;9.10;2.40;;;3.30;92.90;;;;;;5057869;28;20033;-73
2022/02/05 02:35:05;;;;;;;7.47;2.92;;;3.30;93.10;;;;;;5072197;28;20080;-72
2022/02/05 02:37:54;;;;;;;4.80;2.38;;;3.30;93.00;;;;;;5072922;28;20028;-72
2022/02/05 02:40:40;;;;;;;9.10;3.35;;;3.30;93.20;;;;;;5072935;28;20036;-71
2022/02/05 02:43:17;;;;;;;9.00;3.47;;;3.20;93.30;;;;;;5071849;28;20453;-71
2022/02/05 02:45:45;;;;;;;4.90;2.72;;;3.20;93.50;;;;;;5072378;28;20036;-74
2022/02/05 02:48:12;;;;;;;10.07;3.75;;;3.20;93.40;;;;;;5072682;28;20039;-71
2022/02/05 02:56:30;;;;;;;7.60;3.05;;;3.30;93.50;;;;;;5072803;28;20462;-71
2022/02/05 02:59:08;;;;;;;6.53;2.67;;;3.20;93.50;;;;;;5072061;28;20579;-72
2022/02/05 03:01:37;;;;;;;4.18;2.60;;;3.20;93.70;;;;;;5071611;28;20055;-72
2022/02/05 03:04:03;;;;;;;5.00;3.08;;;3.20;93.70;;;;;;5072146;28;20028;-72
2022/02/05 03:06:29;;;;;;;6.57;3.13;;;3.00;94.30;;;;;;5072749;28;20040;-72
2022/02/05 03:08:56;;;;;;;6.55;3.20;;;3.00;94.40;;;;;;5072119;28;20025;-72
2022/02/05 03:11:23;;;;;;;7.35;2.95;;;3.10;94.10;;;;;;5053855;28;20048;-72
2022/02/05 03:13:49;;;;;;;5.63;2.95;;;3.00;94.30;;;;;;5071994;28;20377;-73
2022/02/05 03:16:22;;;;;;;7.82;3.42;;;3.10;94.50;;;;;;5072287;28;20047;-72
2022/02/05 03:21:21;;;;;;;10.10;3.35;;;3.00;94.60;;;;;;5072184;28;20025;-72
2022/02/05 03:23:47;;;;;;;4.75;2.75;;;3.10;94.50;;;;;;5071814;28;20032;-72
2022/02/05 03:26:13;;;;;;;4.30;3.00;;;3.00;94.80;;;;;;5072304;28;20386;-72
2022/02/05 03:28:39;;;;;;;6.32;3.33;;;3.10;94.60;;;;;;5072040;28;20458;-72
2022/02/05 03:31:06;;;;;;;4.35;2.95;;;3.10;94.60;;;;;;5071540;28;20047;-72
2022/02/05 03:33:32;;;;;;;11.45;6.60;;;2.90;95.10;;;;;;5071800;28;20036;-72
2022/02/05 03:35:58;;;;;;;10.80;7.38;;;2.70;95.60;;;;;;5071315;28;20389;-72
2022/02/05 03:38:24;;;;;;;20.23;8.27;;;2.50;96.50;;;;;;5072460;28;20040;-73
2022/02/05 03:40:51;;;;;;;9.68;5.72;;;2.40;97.40;;;;;;5071911;28;20033;-73
2022/02/05 03:43:17;;;;;;;7.20;4.43;;;2.40;98.40;;;;;;5072493;28;20024;-73
2022/02/05 03:45:43;;;;;;;11.75;6.47;;;2.50;98.90;;;;;;5072085;28;20048;-72
2022/02/05 03:48:09;;;;;;;18.13;14.23;;;2.60;98.80;;;;;;5071653;28;20472;-72
2022/02/05 03:50:35;;;;;;;7.72;5.28;;;2.60;98.70;;;;;;5072376;28;20469;-72
2022/02/05 03:53:06;;;;;;;18.52;13.10;;;2.50;99.30;;;;;;5071324;28;20044;-73
2022/02/05 03:55:33;;;;;;;5.85;3.40;;;2.50;99.90;;;;;;5074414;28;20032;-72
2022/02/05 03:57:59;;;;;;;9.93;4.38;;;2.70;99.40;;;;;;5075226;28;20053;-72
2022/02/05 04:00:25;;;;;;;13.38;7.25;;;2.80;99.00;;;;;;5076252;28;20032;-73
2022/02/05 04:02:51;;;;;;;8.18;4.43;;;2.80;98.70;;;;;;5075403;28;20043;-73
2022/02/05 04:05:18;;;;;;;6.35;4.60;;;2.80;98.80;;;;;;5076187;28;20032;-72
2022/02/05 04:07:49;;;;;;;8.63;5.57;;;2.70;99.30;;;;;;5076164;28;20029;-72
2022/02/05 04:10:21;;;;;;;10.07;4.47;;;2.60;99.70;;;;;;5076120;28;20360;-72
2022/02/05 04:18:17;;;;;;;7.82;4.75;;;2.70;99.90;;;;;;5075884;28;20040;-72
2022/02/05 04:20:43;;;;;;;7.60;6.38;;;2.80;99.90;;;;;;5075647;28;20465;-72
2022/02/05 04:23:09;;;;;;;8.40;4.03;;;2.80;99.80;;;;;;5075050;28;20063;-73
2022/02/05 04:25:35;;;;;;;7.32;4.25;;;2.70;99.90;;;;;;5075409;28;20037;-73
2022/02/05 04:28:02;;;;;;;6.47;4.13;;;2.70;99.90;;;;;;5075211;28;20032;-72
2022/02/05 04:30:28;;;;;;;7.72;4.43;;;2.70;99.90;;;;;;5075789;28;20032;-73
2022/02/05 04:32:54;;;;;;;12.30;4.22;;;2.70;99.90;;;;;;5075208;28;20048;-73
2022/02/05 04:35:20;;;;;;;5.28;3.85;;;2.60;99.90;;;;;;5075524;28;20036;-72
2022/02/05 04:37:50;;;;;;;7.35;3.83;;;2.50;99.90;;;;;;5075965;28;20354;-73
2022/02/05 04:40:28;;;;;;;9.02;4.10;;;2.40;99.90;;;;;;5057512;28;20040;-72
2022/02/05 04:56:19;;;;;;;8.95;4.65;;;2.20;99.90;;;;;;5075089;28;20401;-73
2022/02/05 05:03:58;;;;;;;10.75;5.15;;;2.00;99.90;;;;;;5074830;28;20458;-72
2022/02/05 05:06:50;;;;;;;7.40;5.68;;;2.00;99.90;;;;;;5074288;28;20036;-73
2022/02/05 05:09:26;;;;;;;7.10;5.22;;;2.20;99.90;;;;;;5071477;28;20045;-73
2022/02/05 05:12:16;;;;;;;7.05;4.88;;;2.30;99.90;;;;;;5074014;28;20033;-71
2022/02/05 05:20:08;;;;;;;7.78;4.82;;;2.50;99.90;;;;;;5074220;28;20048;-72
2022/02/05 05:22:34;;;;;;;10.10;5.13;;;2.60;99.90;;;;;;5073410;28;20557;-72
2022/02/05 05:25:01;;;;;;;8.45;5.05;;;2.70;99.90;;;;;;5074038;28;20028;-72
2022/02/05 05:27:27;;;;;;;12.95;6.22;;;2.60;99.90;;;;;;5074641;28;20040;-73
2022/02/05 05:29:53;;;;;;;16.83;5.80;;;2.60;99.90;;;;;;5074132;28;20024;-73
2022/02/05 05:32:19;;;;;;;9.90;4.97;;;2.60;99.90;;;;;;5056602;28;20040;-73
2022/02/05 05:34:46;;;;;;;8.40;5.78;;;2.60;99.90;;;;;;5074057;28;20028;-73
2022/02/05 05:37:12;;;;;;;8.40;5.53;;;2.60;99.90;;;;;;5073495;28;20040;-72
2022/02/05 05:39:40;;;;;;;11.85;6.10;;;2.40;99.90;;;;;;5073968;28;20063;-73
2022/02/05 05:42:11;;;;;;;5.53;4.63;;;2.30;99.90;;;;;;5073582;28;20028;-73
2022/02/05 05:47:50;;;;;;;10.95;5.78;;;2.20;99.90;;;;;;5051091;28;20473;-73
2022/02/05 05:53:02;;;;;;;13.65;6.10;;;2.10;99.90;;;;;;5073619;28;20031;-72
2022/02/05 05:55:29;;;;;;;7.80;5.35;;;2.20;99.90;;;;;;5073881;28;20028;-72
2022/02/05 05:57:56;;;;;;;10.55;5.60;;;2.30;99.90;;;;;;5073254;28;20052;-71
2022/02/05 06:00:22;;;;;;;16.48;5.18;;;2.40;99.90;;;;;;5081059;28;20369;-72
2022/02/05 06:02:48;;;;;;;5.82;4.47;;;2.50;99.90;;;;;;5093390;28;20358;-72
2022/02/05 06:05:15;;;;;;;12.10;4.88;;;2.50;99.90;;;;;;5093147;28;20051;-72
2022/02/05 06:07:41;;;;;;;11.18;5.90;;;2.40;99.90;;;;;;5093849;28;20031;-72
2022/02/05 06:10:07;;;;;;;11.82;6.22;;;2.40;99.90;;;;;;5093317;28;20024;-72
2022/02/05 06:12:34;;;;;;;16.67;4.70;;;2.50;99.90;;;;;;5094008;28;20039;-72
2022/02/05 06:15:04;;;;;;;8.63;5.55;;;2.50;99.90;;;;;;5093069;28;20035;-72
2022/02/05 06:17:30;;;;;;;14.00;4.97;;;2.50;99.90;;;;;;5092552;28;20051;-73
2022/02/05 06:19:56;;;;;;;9.73;4.35;;;2.30;99.90;;;;;;5093395;28;20032;-74
2022/02/05 06:22:22;;;;;;;13.45;4.28;;;2.20;99.90;;;;;;5093307;28;20036;-72
2022/02/05 06:24:49;;;;;;;7.93;4.40;;;2.00;99.90;;;;;;5093117;28;20024;-72
2022/02/05 06:27:15;;;;;;;8.02;4.03;;;1.80;99.90;;;;;;5092496;28;20039;-72
2022/02/05 06:29:41;;;;;;;4.93;3.58;;;1.70;99.90;;;;;;5092759;28;20401;-72
2022/02/05 06:32:08;;;;;;;6.70;4.07;;;1.50;99.90;;;;;;5092023;28;20049;-72
2022/02/05 06:34:34;;;;;;;7.72;4.15;;;1.40;99.90;;;;;;5093127;28;20035;-72
2022/02/05 06:37:01;;;;;;;6.10;4.43;;;1.40;99.90;;;;;;5093025;28;20051;-72
2022/02/05 06:39:27;;;;;;;14.38;4.65;;;1.40;99.90;;;;;;5093317;28;20024;-72
2022/02/05 06:41:54;;;;;;;10.95;6.25;;;1.30;99.90;;;;;;5092609;28;20035;-72
2022/02/05 06:44:20;;;;;;;31.65;17.38;;;1.30;99.90;;;;;;5092575;28;20043;-71
2022/02/05 06:46:46;;;;;;;23.77;17.90;;;1.30;99.90;;;;;;5075135;28;20024;-74
2022/02/05 06:49:13;;;;;;;27.80;19.58;;;1.20;99.90;;;;;;5092311;28;20024;-73
2022/02/05 06:51:39;;;;;;;16.20;10.20;;;1.20;99.90;;;;;;5092785;28;20040;-73
2022/02/05 06:54:05;;;;;;;10.27;7.20;;;1.20;99.90;;;;;;5092857;28;20032;-72
2022/02/05 06:56:32;;;;;;;12.18;6.25;;;1.20;99.90;;;;;;5092931;28;20397;-72
2022/02/05 06:58:58;;;;;;;8.75;7.85;;;1.30;99.90;;;;;;5092199;28;20044;-72
2022/02/05 07:01:24;;;;;;;13.98;12.32;;;1.40;99.90;;;;;;5092752;28;20039;-72
2022/02/05 07:03:50;;;;;;;10.98;7.95;;;1.40;99.90;;;;;;5093123;28;20036;-72
2022/02/05 07:06:16;;;;;;;19.90;11.23;;;1.50;99.90;;;;;;5056831;28;20051;-73
2022/02/05 07:08:43;;;;;;;17.75;9.57;;;1.40;99.90;;;;;;5092231;28;20035;-73
2022/02/05 07:11:09;;;;;;;13.73;9.65;;;1.40;99.90;;;;;;5092002;28;20054;-72
2022/02/05 07:13:36;;;;;;;8.70;6.78;;;1.50;99.90;;;;;;5092837;28;20047;-72
2022/02/05 07:16:14;;;;;;;12.82;8.32;;;1.50;99.90;;;;;;5091407;28;20469;-73
2022/02/05 07:21:31;;;;;;;8.77;6.82;;;1.60;99.90;;;;;;5092171;28;20039;-72
2022/02/05 07:29:18;;;;;;;7.68;5.97;;;1.50;99.90;;;;;;5090732;28;20040;-72
2022/02/05 07:31:55;;;;;;;10.35;5.22;;;1.30;99.90;;;;;;5091860;28;20044;-72
2022/02/05 07:34:30;;;;;;;10.07;5.90;;;1.20;99.90;;;;;;5091920;28;20039;-74
2022/02/05 07:37:03;;;;;;;6.47;5.55;;;1.20;99.90;;;;;;5091327;28;20059;-72
2022/02/05 07:39:38;;;;;;;12.10;5.85;;;1.10;99.90;;;;;;5092627;28;20039;-72
2022/02/05 07:42:05;;;;;;;9.43;6.93;;;1.10;99.90;;;;;;5091735;28;20036;-73
2022/02/05 07:44:32;;;;;;;10.32;5.95;;;1.10;99.90;;;;;;5091680;28;20036;-73
2022/02/05 07:47:00;;;;;;;7.25;6.25;;;1.10;99.90;;;;;;5092216;28;20389;-73
2022/02/05 07:49:30;;;;;;;12.35;6.55;;;1.30;99.90;;;;;;5092167;28;20035;-73
2022/02/05 07:51:56;;;;;;;11.10;6.68;;;1.40;99.90;;;;;;5092242;28;20040;-73
2022/02/05 07:54:22;;;;;;;11.23;6.65;;;1.60;99.90;;;;;;5091676;28;20407;-72
2022/02/05 07:56:49;;;;;;;7.05;6.07;;;1.90;99.90;;;;;;5092273;28;20040;-72
2022/02/05 07:59:17;;;;;;;6.50;5.80;;;2.30;99.90;;;;;;5091947;28;20044;-73
2022/02/05 08:01:44;;;;;;;11.95;6.03;;;2.60;99.90;;;;;;5092061;28;20032;-73
2022/02/05 08:04:10;;;;;;;8.35;5.40;;;2.90;99.90;;;;;;5091541;28;20028;-73
2022/02/05 08:06:37;;;;;;;9.25;5.60;;;3.10;99.90;;;;;;5091882;28;20047;-73
2022/02/05 08:09:15;;;;;;;9.05;5.18;;;3.30;99.90;;;;;;5091708;28;20031;-73
2022/02/05 08:11:47;;;;;;;5.22;4.20;;;3.80;99.90;;;;;;5092048;28;20032;-73
2022/02/05 08:14:13;;;;;;;12.82;5.50;;;3.90;99.90;;;;;;5091473;28;20032;-73
2022/02/05 08:19:07;;;;;;;6.95;3.33;;;4.60;97.10;;;;;;5090992;28;20393;-72
2022/02/05 08:21:33;;;;;;;4.05;3.20;;;4.80;96.10;;;;;;5073644;28;20036;-73
2022/02/05 08:23:59;;;;;;;5.88;2.55;;;5.10;95.00;;;;;;5091868;28;20468;-73
2022/02/05 08:26:30;;;;;;;4.10;2.60;;;5.50;93.30;;;;;;5090826;28;20055;-72
2022/02/05 08:28:57;;;;;;;;;;;5.60;92.90;;;;;;5092262;28;20039;-72
2022/02/05 08:31:24;;;;;;;6.07;3.28;;;6.10;90.90;;;;;;5091149;28;19911;-72
2022/02/05 08:33:52;;;;;;;5.90;3.75;;;6.10;90.20;;;;;;5072978;28;20036;-73
2022/02/05 08:36:21;;;;;;;9.95;7.15;;;6.50;89.90;;;;;;5072369;28;20524;-72
2022/02/05 08:38:49;;;;;;;8.13;3.75;;;6.70;88.00;;;;;;5090785;28;20052;-73
2022/02/05 08:41:15;;;;;;;4.40;3.35;;;6.60;85.20;;;;;;5075112;28;20024;-72
2022/02/05 08:43:41;;;;;;;7.70;5.75;;;6.30;86.40;;;;;;5095801;28;20028;-72
2022/02/05 08:46:07;;;;;;;8.82;3.78;;;6.00;87.00;;;;;;5094755;28;20047;-73
2022/02/05 08:48:34;;;;;;;4.93;3.53;;;5.80;88.20;;;;;;5095501;28;20032;-73
2022/02/05 08:51:00;;;;;;;6.18;3.35;;;5.50;88.70;;;;;;5095424;28;20036;-72
2022/02/05 08:53:27;;;;;;;5.93;3.05;;;5.10;90.40;;;;;;5094731;28;20024;-73
2022/02/05 08:55:53;;;;;;;5.22;3.33;;;4.60;91.50;;;;;;5094395;28;20523;-72
2022/02/05 08:58:20;;;;;;;8.75;3.80;;;4.30;92.60;;;;;;5094227;28;20044;-72
2022/02/05 09:00:55;;;;;;;7.20;5.35;;;4.20;93.80;;;;;;5095297;28;20047;-72
2022/02/05 09:03:37;;;;;;;5.78;4.10;;;4.20;94.40;;;;;;5094642;28;20039;-72
2022/02/05 09:06:06;;;;;;;4.78;3.95;;;4.30;94.70;;;;;;5095466;28;20369;-74
2022/02/05 09:08:38;;;;;;;5.75;3.50;;;4.30;95.00;;;;;;5095070;28;20032;-73
2022/02/05 09:11:51;;;;;;;5.70;3.47;;;4.20;95.10;;;;;;5095122;28;20039;-75
2022/02/05 09:16:47;;;;;;;10.30;4.03;;;4.40;95.80;;;;;;5094820;28;20044;-73
2022/02/05 09:19:14;;;;;;;8.32;4.30;;;4.40;95.50;;;;;;5094528;28;20032;-73
2022/02/05 09:21:40;;;;;;;4.93;4.43;;;4.40;95.50;;;;;;5094637;28;20381;-73
2022/02/05 09:24:07;;;;;;;5.65;3.55;;;4.70;95.20;;;;;;5094384;28;20060;-73
2022/02/05 09:26:42;;;;;;;6.60;3.15;;;5.00;94.70;;;;;;5094902;28;20027;-73
2022/02/05 09:29:33;;;;;;;4.85;2.72;;;5.30;93.30;;;;;;5093853;28;20036;-73
2022/02/05 09:31:59;;;;;;;7.40;2.95;;;5.40;92.40;;;;;;5094914;28;20044;-72
2022/02/05 09:34:25;;;;;;;3.85;2.47;;;5.60;92.20;;;;;;5094276;28;20303;-73
2022/02/05 09:36:51;;;;;;;7.20;4.70;;;5.70;90.90;;;;;;5094605;28;20040;-73
2022/02/05 09:39:18;;;;;;;5.80;3.08;;;5.90;90.90;;;;;;5093728;28;20036;-73
2022/02/05 09:41:45;;;;;;;3.38;1.88;;;5.70;89.40;;;;;;5094105;28;20047;-73
2022/02/05 09:44:11;;;;;;;6.78;2.95;;;5.60;89.40;;;;;;5093620;28;20035;-74
2022/02/05 09:46:38;;;;;;;8.82;4.25;;;5.60;90.00;;;;;;5094556;28;20036;-73
2022/02/05 09:49:05;;;;;;;4.20;2.72;;;5.50;90.20;;;;;;5094293;28;20381;-73
2022/02/05 09:51:37;;;;;;;9.50;3.00;;;5.50;90.30;;;;;;5094242;28;20032;-73
2022/02/05 09:54:05;;;;;;;6.50;3.53;;;5.60;90.20;;;;;;5094046;28;20046;-72
2022/02/05 09:56:35;;;;;;;6.13;3.47;;;5.40;90.20;;;;;;5093937;28;20036;-73
2022/02/05 09:59:02;;;;;;;10.18;3.03;;;5.50;90.90;;;;;;5093948;28;20044;-73
2022/02/05 10:01:32;;;;;;;8.40;6.90;;;5.60;90.00;;;;;;5093241;28;20358;-73
2022/02/05 10:03:58;;;;;;;8.15;4.15;;;5.80;88.80;;;;;;5075963;28;20031;-73
2022/02/05 10:06:29;;;;;;;6.30;3.03;;;5.70;87.80;;;;;;5093400;28;20043;-73
2022/02/05 10:09:10;;;;;;;20.45;11.50;;;5.70;88.60;;;;;;5094070;28;20032;-73
2022/02/05 10:11:57;;;;;;;7.93;4.93;;;5.70;88.40;;;;;;5093316;28;20036;-73
2022/02/05 10:14:25;;;;;;;4.68;3.00;;;5.60;88.90;;;;;;5093487;28;20449;-73
2022/02/05 10:16:54;;;;;;;11.90;9.25;;;5.50;89.20;;;;;;5093864;28;20465;-73
2022/02/05 10:19:22;;;;;;;7.22;5.10;;;5.40;89.30;;;;;;5075189;28;20032;-73
2022/02/05 10:22:01;;;;;;;6.63;4.85;;;5.50;89.00;;;;;;5093857;28;20046;-73
2022/02/05 10:24:29;;;;;;;4.00;2.88;;;5.40;88.70;;;;;;5092881;28;20024;-73
2022/02/05 10:26:55;;;;;;;8.57;3.20;;;5.40;89.90;;;;;;5093540;28;20031;-73
2022/02/05 10:29:22;;;;;;;11.60;4.13;;;5.30;89.80;;;;;;5092073;28;20040;-73
2022/02/05 10:32:14;;;;;;;10.43;4.00;;;5.30;89.80;;;;;;5093392;28;20037;-73
2022/02/05 10:34:59;;;;;;;7.55;4.20;;;5.30;90.30;;;;;;5093474;28;20036;-72
2022/02/05 10:37:29;;;;;;;10.02;4.30;;;5.30;89.80;;;;;;5092796;28;20382;-73
2022/02/05 10:45:12;;;;;;;8.35;3.63;;;5.50;90.60;;;;;;5092465;28;19908;-73
2022/02/05 10:47:47;;;;;;;11.18;4.20;;;5.70;90.10;;;;;;5093172;28;20075;-72
2022/02/05 10:50:18;;;;;;;4.95;3.50;;;6.00;89.10;;;;;;5092650;28;20036;-73
2022/02/05 10:52:49;;;;;;;7.63;4.80;;;6.10;88.00;;;;;;5093045;28;20028;-72
2022/02/05 10:55:35;;;;;;;7.30;4.80;;;6.10;88.70;;;;;;5092644;28;20047;-72
2022/02/05 11:08:10;;;;;;;7.63;4.78;;;6.20;87.70;;;;;;5092691;28;20032;-72
2022/02/05 11:21:37;;;;;;;6.32;4.70;;;6.40;88.00;;;;;;5009102;28;20046;-73
2022/02/05 11:24:06;;;;;;;14.18;5.90;;;6.60;87.30;;;;;;5010478;28;20033;-73
2022/02/05 11:26:34;;;;;;;6.90;5.50;;;6.80;86.90;;;;;;5009873;28;20513;-73
2022/02/05 11:29:03;;;;;;;13.55;12.20;;;6.80;86.00;;;;;;5010410;28;20034;-73
2022/02/05 11:31:37;;;;;;;6.68;3.33;;;6.90;85.80;;;;;;5009761;28;20045;-72
2022/02/05 11:34:29;;;;;;;4.72;3.10;;;6.80;86.20;;;;;;5010240;28;20061;-73
2022/02/05 11:37:05;;;;;;;11.95;7.18;;;6.90;85.80;;;;;;5010438;28;20050;-72
2022/02/05 11:39:46;;;;;;;7.82;3.83;;;7.00;84.90;;;;;;5009773;28;20046;-73
2022/02/05 11:42:26;;;;;;;5.33;3.63;;;7.10;85.00;;;;;;5010569;28;20040;-72
2022/02/05 11:44:52;;;;;;;6.35;3.55;;;7.10;84.50;;;;;;5010287;28;20042;-72
2022/02/05 11:47:19;;;;;;;5.95;3.20;;;7.10;83.60;;;;;;5009624;28;20062;-72
2022/02/05 11:49:55;;;;;;;4.25;3.42;;;7.10;83.50;;;;;;5010247;28;20109;-72
2022/02/05 11:52:37;;;;;;;14.45;3.63;;;6.90;83.60;;;;;;5048412;28;20043;-70
2022/02/05 11:55:04;;;;;;;7.30;4.07;;;7.00;84.50;;;;;;5092142;28;20032;-72
2022/02/05 11:57:45;;;;;;;15.45;9.55;;;7.20;83.70;;;;;;5091597;28;20048;-72
2022/02/05 12:00:20;;;;;;;8.20;5.43;;;7.40;82.80;;;;;;5091670;28;20044;-71
2022/02/05 12:02:59;;;;;;;12.52;9.13;;;7.70;81.10;;;;;;5092257;28;20051;-72
2022/02/05 12:05:38;;;;;;;16.83;13.70;;;7.90;80.40;;;;;;5091782;28;20141;-72
2022/02/05 12:08:04;;;;;;;8.30;5.00;;;8.10;79.70;;;;;;5092410;28;20041;-71
2022/02/05 12:10:41;;;;;;;7.28;4.75;;;8.20;78.80;;;;;;5092445;28;20039;-71
2022/02/05 12:13:29;;;;;;;29.17;18.83;;;8.50;77.00;;;;;;5092331;28;20032;-72
2022/02/05 12:15:55;;;;;;;7.70;3.13;;;8.70;76.90;;;;;;5075226;28;20044;-71
2022/02/05 12:18:30;;;;;;;5.22;2.13;;;8.30;75.70;;;;;;5095510;28;20043;-72
2022/02/05 12:26:15;;;;;;;20.20;4.15;;;7.90;77.20;;;;;;5087437;28;20048;-72
2022/02/05 12:28:42;;;;;;;12.88;2.13;;;8.00;77.10;;;;;;5095997;28;20377;-72
2022/02/05 12:31:17;;;;;;;7.60;2.15;;;8.00;77.20;;;;;;5095673;28;20036;-72
2022/02/05 12:33:48;;;;;;;4.72;2.20;;;7.80;76.10;;;;;;5096014;28;20039;-72
2022/02/05 12:36:26;;;;;;;6.35;1.60;;;7.70;77.70;;;;;;5096042;28;20024;-72
2022/02/05 12:38:54;;;;;;;10.63;2.10;;;7.60;75.90;;;;;;5095123;28;20408;-72
2022/02/05 12:41:25;;;;;;;8.23;2.08;;;7.50;76.80;;;;;;5095001;28;20413;-72
2022/02/05 12:43:56;;;;;;;24.65;4.28;;;7.40;77.70;;;;;;5095813;28;20035;-72
2022/02/05 12:46:34;;;;;;;9.90;2.80;;;7.40;79.40;;;;;;5094817;28;20040;-72
2022/02/05 12:49:05;;;;;;;6.88;2.70;;;7.50;78.70;;;;;;5095302;28;20050;-72
2022/02/05 12:51:32;;;;;;;34.65;27.15;;;7.50;78.50;;;;;;5094826;28;20380;-72
2022/02/05 12:54:11;;;;;;;8.88;3.63;;;7.60;78.50;;;;;;5095619;28;20028;-72
2022/02/05 12:56:42;;;;;;;5.95;3.03;;;7.60;78.20;;;;;;5094415;28;20387;-72
2022/02/05 12:59:13;;;;;;;5.50;1.92;;;7.50;79.20;;;;;;5095128;28;20047;-72
2022/02/05 13:02:10;;;;;;;6.97;2.10;;;7.40;77.70;;;;;;5094498;28;20055;-72
2022/02/05 13:04:38;;;;;;;5.03;2.13;;;7.40;78.00;;;;;;5081819;28;20073;-72
2022/02/05 13:07:32;;;;;;;2.28;1.75;;;7.50;77.60;;;;;;5095104;28;20036;-72
2022/02/05 13:10:03;;;;;;;4.38;1.98;;;7.60;77.20;;;;;;5093021;28;20044;-72
2022/02/05 13:12:38;;;;;;;7.30;2.83;;;7.50;76.80;;;;;;5094653;28;20384;-72
2022/02/05 13:15:26;;;;;;;6.40;2.13;;;7.60;77.90;;;;;;5095187;28;20032;-72
2022/02/05 13:36:23;;;;;;;9.68;2.38;;;7.60;76.70;;;;;;5094513;28;20039;-73
2022/02/05 13:41:51;;;;;;;2.47;1.33;;;7.70;75.20;;;;;;5094029;28;20032;-73
2022/02/05 13:44:22;;;;;;;11.93;1.13;;;7.60;74.90;;;;;;5094881;28;20377;-73
2022/02/05 13:47:05;;;;;;;3.53;1.05;;;7.40;75.00;;;;;;5094207;28;20040;-72
2022/02/05 13:49:33;;;;;;;6.18;1.42;;;7.40;76.50;;;;;;5093662;28;20369;-72
2022/02/05 13:52:13;;;;;;;2.17;1.20;;;7.30;76.50;;;;;;5094238;28;20377;-72
2022/02/05 13:54:42;;;;;;;4.13;2.30;;;7.30;76.60;;;;;;5093571;28;20032;-73
2022/02/05 13:57:12;;;;;;;20.98;11.07;;;7.20;77.00;;;;;;5093752;28;20036;-72
2022/02/05 13:59:39;;;;;;;20.95;10.30;;;7.20;78.20;;;;;;5093576;28;20028;-72
2022/02/05 14:02:16;;;;;;;21.45;13.27;;;7.30;77.50;;;;;;5094221;28;20055;-71
2022/02/05 14:04:43;;;;;;;44.47;23.08;;;7.30;78.10;;;;;;5093412;28;20036;-71
2022/02/05 14:07:09;;;;;;;46.67;24.92;;;7.30;78.00;;;;;;5094219;28;20381;-71
2022/02/05 14:09:36;;;;;;;16.20;9.27;;;7.30;77.70;;;;;;5093362;28;20050;-72
2022/02/05 14:12:18;;;;;;;16.40;10.32;;;7.30;78.60;;;;;;5094269;28;20031;-72
2022/02/05 14:15:00;;;;;;;11.48;5.57;;;7.30;77.80;;;;;;5093421;28;20028;-72
2022/02/05 14:17:27;;;;;;;5.10;2.85;;;7.20;79.30;;;;;;5093459;28;20039;-72
2022/02/05 14:20:08;;;;;;;3.90;1.40;;;7.10;79.20;;;;;;5094047;28;20028;-72
2022/02/05 14:22:39;;;;;;;5.00;1.75;;;7.10;78.70;;;;;;5093212;28;20035;-71
2022/02/05 14:25:16;;;;;;;5.22;2.25;;;7.10;79.30;;;;;;5093989;28;20417;-72
2022/02/05 14:28:07;;;;;;;4.80;1.85;;;7.10;79.30;;;;;;5074736;28;20361;-72
2022/02/05 14:30:35;;;;;;;7.25;1.80;;;7.10;79.70;;;;;;5092896;28;20036;-72
2022/02/05 14:33:06;;;;;;;2.22;1.42;;;7.00;79.30;;;;;;5093512;28;20051;-72
2022/02/05 14:40:49;;;;;;;5.00;3.53;;;6.90;80.80;;;;;;5094345;28;20036;-72
2022/02/05 14:43:19;;;;;;;5.35;2.75;;;6.90;81.40;;;;;;5093767;28;20039;-72
2022/02/05 14:45:46;;;;;;;3.95;2.28;;;6.80;82.00;;;;;;5092639;28;20036;-72
2022/02/05 14:48:12;;;;;;;5.93;2.33;;;6.80;82.30;;;;;;5093298;28;20032;-72
2022/02/05 14:50:39;;;;;;;3.40;2.08;;;6.80;83.00;;;;;;5092635;28;20032;-72
2022/02/05 14:53:05;;;;;;;3.38;2.08;;;6.70;83.60;;;;;;5093113;28;20043;-72
2022/02/05 14:55:31;;;;;;;6.13;2.42;;;6.70;86.20;;;;;;5092724;28;20039;-72
2022/02/05 14:57:58;;;;;;;4.45;2.20;;;6.60;87.60;;;;;;5092837;28;20051;-73
2022/02/05 15:00:24;;;;;;;3.58;2.30;;;6.60;86.70;;;;;;5093411;28;20036;-72
2022/02/05 15:02:51;;;;;;;3.85;2.45;;;6.60;86.90;;;;;;5093027;28;20047;-72
2022/02/05 15:05:18;;;;;;;6.43;3.55;;;6.60;88.10;;;;;;5092425;28;20044;-72
2022/02/05 15:07:45;;;;;;;3.40;2.53;;;6.70;87.70;;;;;;5092197;28;20039;-72
2022/02/05 15:10:14;;;;;;;5.47;1.45;;;6.60;87.40;;;;;;5093001;28;20142;-72
2022/02/05 15:12:41;;;;;;;3.05;1.63;;;6.70;83.90;;;;;;5092413;28;20102;-72
2022/02/05 15:15:19;;;;;;;3.78;1.67;;;6.70;83.40;;;;;;5092477;28;20050;-72
2022/02/05 15:17:45;;;;;;;5.00;2.60;;;6.70;82.40;;;;;;5092256;28;20466;-72
2022/02/05 15:20:13;;;;;;;2.90;1.80;;;6.70;82.80;;;;;;5092908;28;20024;-72
2022/02/05 15:22:40;;;;;;;6.13;2.35;;;6.80;82.70;;;;;;5092222;28;20043;-72
2022/02/05 15:25:10;;;;;;;1.88;1.30;;;7.00;81.70;;;;;;5092963;28;20036;-72
2022/02/05 15:27:37;;;;;;;5.38;1.80;;;7.00;81.80;;;;;;5092312;28;20039;-72
2022/02/05 15:30:05;;;;;;;3.75;1.55;;;7.10;81.80;;;;;;5092600;28;20035;-72
2022/02/05 15:32:31;;;;;;;2.20;1.40;;;7.00;82.50;;;;;;5091779;28;20039;-72
2022/02/05 15:34:57;;;;;;;2.72;1.35;;;6.80;83.30;;;;;;5091916;28;20040;-72
2022/02/05 15:37:25;;;;;;;3.40;1.38;;;6.60;83.80;;;;;;5092188;28;20059;-72
2022/02/05 15:40:15;;;;;;;4.65;1.95;;;6.50;84.00;;;;;;5091248;28;20044;-72
2022/02/05 15:45:26;;;;;;;2.83;1.52;;;6.50;82.70;;;;;;5092484;28;20037;-71
2022/02/05 15:47:52;;;;;;;4.50;1.88;;;6.60;81.80;;;;;;5092070;28;20031;-71
2022/02/05 15:50:18;;;;;;;5.57;2.05;;;6.60;81.60;;;;;;5092222;28;20020;-72
2022/02/05 15:52:45;;;;;;;4.97;2.15;;;6.60;81.30;;;;;;5073317;28;20043;-72
2022/02/05 15:55:12;;;;;;;19.92;9.45;;;6.60;81.30;;;;;;5091907;28;20032;-72
2022/02/05 15:58:01;;;;;;;3.53;1.05;;;6.60;80.20;;;;;;5091244;28;20059;-72
2022/02/05 16:00:30;;;;;;;4.57;2.70;;;6.50;79.80;;;;;;5092053;28;20485;-72
2022/02/05 16:02:57;;;;;;;4.90;3.42;;;6.40;80.50;;;;;;5092226;28;20044;-72
2022/02/05 16:05:23;;;;;;;5.53;4.63;;;6.30;80.20;;;;;;5092147;28;20024;-72
2022/02/05 16:07:50;;;;;;;4.00;3.00;;;6.30;80.80;;;;;;5092495;28;20028;-72
2022/02/05 16:10:17;;;;;;;3.85;2.38;;;6.30;79.40;;;;;;5092381;28;20032;-72
2022/02/05 16:12:45;;;;;;;6.93;3.63;;;6.30;79.80;;;;;;5091078;28;20059;-72
2022/02/05 16:15:11;;;;;;;4.72;2.50;;;6.30;79.50;;;;;;5092042;28;20461;-71
2022/02/05 16:17:38;;;;;;;4.28;2.92;;;6.30;80.10;;;;;;5091400;28;20024;-72
2022/02/05 16:20:05;;;;;;;5.55;2.50;;;6.30;80.60;;;;;;5091667;28;20044;-72
2022/02/05 16:22:31;;;;;;;5.20;2.30;;;6.30;80.60;;;;;;5091606;28;20381;-73
2022/02/05 16:24:57;;;;;;;4.07;2.05;;;6.30;81.00;;;;;;5073850;28;20054;-72